Terminal Aerodrome Forecast
Issued by NWS Sioux Falls, SD

Home | Current Version | Previous Version | Text Only | Print | Product List | Glossary On
Versions: 1 2 3 4 5 6 7 8 9 10 11 12 13 14 15 16 17
000
FTUS43 KFSD 261737
TAFSUX
TAF
KSUX 261737Z 2618/2718 VRB03KT P6SM BKN090
     FM262100 12009KT P6SM BKN150
     FM270100 12007KT P6SM SHRA VCTS BKN080CB
     FM270900 12009KT 5SM SHRA VCTS OVC030CB
     FM271000 12009KT P6SM -SHRA OVC015
     FM271300 13008KT P6SM OVC025=

USA.gov is the U.S. government's official web portal to all federal, state and local government web resources and services.